createdAt,value
2022-08-26T00:00:19.262Z,22.14
2022-08-26T00:03:07.913Z,22.12
2022-08-26T00:05:41.568Z,22.09
2022-08-26T00:08:15.309Z,22.01
2022-08-26T00:10:47.172Z,21.86
2022-08-26T00:13:20.415Z,21.76
2022-08-26T00:15:52.971Z,21.76
2022-08-26T00:18:24.989Z,21.73
2022-08-26T00:20:57.921Z,21.68
2022-08-26T00:23:32.410Z,21.63
2022-08-26T00:26:05.883Z,21.62
2022-08-26T00:28:40.901Z,21.63
2022-08-26T00:31:12.768Z,21.62
2022-08-26T00:33:46.350Z,21.58
2022-08-26T00:36:20.215Z,21.57
2022-08-26T00:38:52.905Z,21.56
2022-08-26T00:41:24.751Z,21.57
2022-08-26T00:44:00.131Z,21.60
2022-08-26T00:46:35.418Z,21.61
2022-08-26T00:49:13.077Z,21.58
2022-08-26T00:51:50.733Z,21.57
2022-08-26T00:54:26.917Z,21.58
2022-08-26T00:57:02.132Z,21.60
2022-08-26T00:59:35.072Z,21.64
2022-08-26T01:02:20.191Z,21.67
2022-08-26T01:04:57.243Z,21.66
2022-08-26T01:07:34.702Z,21.67
2022-08-26T01:10:20.365Z,21.67
2022-08-26T01:12:57.448Z,21.61
2022-08-26T01:15:32.943Z,21.56
2022-08-26T01:18:06.907Z,21.57
2022-08-26T01:20:57.711Z,21.57
2022-08-26T01:23:33.869Z,21.53
2022-08-26T01:26:19.833Z,21.53
2022-08-26T01:28:55.643Z,21.57
2022-08-26T01:31:39.071Z,21.61
2022-08-26T01:34:18.254Z,21.57
2022-08-26T01:36:54.441Z,21.60
2022-08-26T01:39:26.866Z,21.60
2022-08-26T01:42:03.208Z,21.59
2022-08-26T01:44:41.779Z,21.56
2022-08-26T01:47:16.125Z,21.56
2022-08-26T01:49:53.635Z,21.59
2022-08-26T01:52:29.740Z,21.59
2022-08-26T01:55:02.162Z,21.55
2022-08-26T01:57:34.280Z,21.53
2022-08-26T02:00:13.310Z,21.48
2022-08-26T02:03:15.110Z,21.48
2022-08-26T02:05:51.330Z,21.51
2022-08-26T02:08:28.073Z,21.52
2022-08-26T02:11:00.254Z,21.54
2022-08-26T02:13:38.470Z,21.49
2022-08-26T02:16:13.705Z,21.40
2022-08-26T02:18:47.240Z,21.33
2022-08-26T02:21:19.404Z,21.28
2022-08-26T02:23:53.020Z,21.25
2022-08-26T02:26:28.384Z,21.22
2022-08-26T02:29:07.970Z,21.20
2022-08-26T02:31:39.937Z,21.15
2022-08-26T02:34:15.822Z,21.11
2022-08-26T02:36:47.853Z,21.09
2022-08-26T02:39:22.101Z,21.05
2022-08-26T02:41:54.212Z,21.02
2022-08-26T02:44:27.921Z,20.97
2022-08-26T02:47:00.534Z,20.93
2022-08-26T02:49:32.468Z,20.89
2022-08-26T02:52:06.633Z,20.87
2022-08-26T02:54:39.265Z,20.87
2022-08-26T02:57:11.342Z,20.91
2022-08-26T02:59:43.646Z,20.97
2022-08-26T03:02:17.439Z,20.97
2022-08-26T03:04:57.754Z,21.03
2022-08-26T03:07:33.953Z,21.02
2022-08-26T03:10:12.521Z,21.01
2022-08-26T03:12:47.504Z,20.95
2022-08-26T03:15:22.010Z,20.91
2022-08-26T03:17:53.971Z,20.88
2022-08-26T03:20:31.605Z,20.82
2022-08-26T03:23:03.536Z,20.74
2022-08-26T03:25:36.323Z,20.68
2022-08-26T03:28:09.674Z,20.65
2022-08-26T03:30:44.897Z,20.65
2022-08-26T03:33:17.477Z,20.63
2022-08-26T03:35:50.545Z,20.60
2022-08-26T03:38:25.234Z,20.58
2022-08-26T03:41:00.563Z,20.58
2022-08-26T03:43:33.339Z,20.60
2022-08-26T03:46:10.450Z,20.60
2022-08-26T03:48:42.583Z,20.57
2022-08-26T03:51:19.999Z,20.54
2022-08-26T03:53:52.941Z,20.53
2022-08-26T03:56:25.857Z,20.50
2022-08-26T03:58:58.214Z,20.48
2022-08-26T04:01:33.931Z,20.49
2022-08-26T04:04:07.201Z,20.46
2022-08-26T04:06:44.758Z,20.47
2022-08-26T04:09:19.835Z,20.52
2022-08-26T04:11:54.541Z,20.50
2022-08-26T04:14:28.285Z,20.49
2022-08-26T04:17:00.222Z,20.46
2022-08-26T04:19:34.916Z,20.42
2022-08-26T04:22:08.609Z,20.43
2022-08-26T04:24:41.539Z,20.47
2022-08-26T04:27:13.787Z,20.46
2022-08-26T04:29:47.726Z,20.44
2022-08-26T04:32:20.915Z,20.44
2022-08-26T04:34:52.973Z,20.48
2022-08-26T04:37:25.276Z,20.53
2022-08-26T04:39:57.644Z,20.58
2022-08-26T04:42:32.637Z,20.66
2022-08-26T04:45:05.916Z,20.68
2022-08-26T04:47:42.303Z,20.75
2022-08-26T04:50:15.385Z,20.75
2022-08-26T04:52:50.087Z,20.82
2022-08-26T04:55:21.969Z,20.82
2022-08-26T04:58:10.646Z,20.86
2022-08-26T05:00:44.181Z,20.95
2022-08-26T05:03:18.222Z,21.01
2022-08-26T05:05:52.397Z,21.05
2022-08-26T05:08:24.979Z,21.09
2022-08-26T05:10:58.020Z,21.10
2022-08-26T05:13:31.333Z,21.05
2022-08-26T05:16:13.848Z,21.03
2022-08-26T05:18:47.487Z,21.04
2022-08-26T05:21:25.262Z,21.03
2022-08-26T05:24:00.561Z,21.03
2022-08-26T05:26:33.837Z,21.11
2022-08-26T05:29:06.689Z,21.19
2022-08-26T05:31:38.982Z,21.24
2022-08-26T05:34:11.635Z,21.29
2022-08-26T05:39:10.350Z,21.35
2022-08-26T05:41:44.853Z,21.38
2022-08-26T05:44:20.363Z,21.39
2022-08-26T05:46:54.576Z,21.46
2022-08-26T05:49:26.776Z,21.54
2022-08-26T05:51:58.811Z,21.54
2022-08-26T05:54:30.839Z,21.57
2022-08-26T05:57:02.943Z,21.63
2022-08-26T05:59:35.554Z,21.65
2022-08-26T06:02:10.801Z,21.65
2022-08-26T06:04:45.254Z,21.69
2022-08-26T06:07:17.270Z,21.76
2022-08-26T06:09:50.676Z,21.92
2022-08-26T06:12:22.519Z,22.05
2022-08-26T06:14:55.163Z,22.10
2022-08-26T06:17:27.061Z,22.11
2022-08-26T06:19:58.867Z,22.17
2022-08-26T06:22:48.564Z,22.29
2022-08-26T06:25:37.845Z,22.27
2022-08-26T06:28:10.264Z,22.25
2022-08-26T06:30:48.977Z,22.38
2022-08-26T06:33:21.604Z,22.56
2022-08-26T06:35:54.081Z,22.74
2022-08-26T06:38:26.434Z,22.86
2022-08-26T06:41:00.298Z,22.98
2022-08-26T06:43:32.381Z,23.13
2022-08-26T06:46:07.689Z,23.28
2022-08-26T06:48:41.165Z,23.41
2022-08-26T06:51:18.602Z,23.38
2022-08-26T06:53:53.387Z,23.33
2022-08-26T06:56:28.712Z,23.28
2022-08-26T06:59:00.699Z,23.28
2022-08-26T07:01:35.023Z,23.31
2022-08-26T07:04:10.594Z,23.40
2022-08-26T07:06:47.216Z,23.45
2022-08-26T07:09:19.459Z,23.51
2022-08-26T07:11:53.234Z,23.65
2022-08-26T07:14:26.165Z,23.76
2022-08-26T07:16:59.576Z,23.82
2022-08-26T07:19:31.939Z,23.90
2022-08-26T07:22:07.230Z,23.91
2022-08-26T07:24:42.470Z,23.93
2022-08-26T07:27:17.298Z,24.00
2022-08-26T07:29:49.722Z,24.09
2022-08-26T07:32:22.978Z,24.19
2022-08-26T07:34:55.032Z,24.31
2022-08-26T07:37:27.048Z,24.29
2022-08-26T07:40:02.881Z,24.32
2022-08-26T07:42:38.785Z,24.41
2022-08-26T07:45:11.421Z,24.57
2022-08-26T07:47:43.594Z,24.66
2022-08-26T07:50:47.085Z,24.67
2022-08-26T07:53:18.034Z,24.69
2022-08-26T07:55:50.741Z,24.84
2022-08-26T07:58:22.644Z,25.00
2022-08-26T08:00:54.563Z,25.13
2022-08-26T08:03:26.499Z,25.14
2022-08-26T08:05:58.751Z,25.18
2022-08-26T08:08:31.561Z,25.25
2022-08-26T08:11:03.532Z,25.45
2022-08-26T08:13:38.188Z,25.57
2022-08-26T08:16:12.485Z,25.66
2022-08-26T08:18:44.805Z,25.77
2022-08-26T08:21:21.803Z,25.75
2022-08-26T08:23:57.932Z,25.77
2022-08-26T08:26:30.346Z,25.92
2022-08-26T08:29:02.384Z,26.07
2022-08-26T08:34:29.511Z,26.30
2022-08-26T08:37:01.540Z,26.23
2022-08-26T08:39:36.370Z,26.23
2022-08-26T08:42:35.618Z,26.32
2022-08-26T08:45:12.687Z,26.44
2022-08-26T08:47:50.456Z,26.47
2022-08-26T08:50:34.764Z,26.42
2022-08-26T08:53:14.386Z,26.45
2022-08-26T08:56:05.765Z,26.50
2022-08-26T08:58:52.051Z,26.55
2022-08-26T09:01:38.166Z,26.61
2022-08-26T09:04:40.177Z,26.68
2022-08-26T09:07:18.602Z,26.74
2022-08-26T09:10:18.843Z,26.83
2022-08-26T09:13:00.873Z,26.90
2022-08-26T09:15:43.689Z,26.93
2022-08-26T09:18:31.434Z,27.02
2022-08-26T09:22:09.575Z,27.17
2022-08-26T09:24:48.398Z,27.36
2022-08-26T09:27:39.234Z,27.39
2022-08-26T09:30:19.621Z,27.44
2022-08-26T09:33:03.060Z,27.51
2022-08-26T09:35:47.288Z,27.63
2022-08-26T09:38:26.891Z,27.69
2022-08-26T09:41:03.742Z,27.78
2022-08-26T09:43:37.096Z,27.98
2022-08-26T09:46:19.943Z,28.07
2022-08-26T09:48:53.209Z,28.12
2022-08-26T09:51:34.749Z,28.12
2022-08-26T09:54:08.076Z,28.16
2022-08-26T09:56:42.898Z,28.24
2022-08-26T09:59:15.311Z,28.35
2022-08-26T10:01:52.628Z,28.47
2022-08-26T10:04:27.127Z,28.63
2022-08-26T10:07:00.908Z,28.64
2022-08-26T10:09:37.570Z,28.72
2022-08-26T10:12:17.130Z,28.78
2022-08-26T10:14:53.341Z,28.73
2022-08-26T10:17:32.750Z,28.79
2022-08-26T10:20:22.581Z,28.86
2022-08-26T10:23:00.554Z,28.93
2022-08-26T10:25:38.852Z,29.01
2022-08-26T10:28:21.793Z,29.11
2022-08-26T10:31:02.011Z,29.21
2022-08-26T10:33:34.194Z,29.27
2022-08-26T10:36:36.408Z,29.25
2022-08-26T10:39:21.174Z,29.33
2022-08-26T10:41:57.703Z,29.25
2022-08-26T10:44:34.004Z,29.29
2022-08-26T10:47:10.960Z,29.38
2022-08-26T10:49:44.406Z,29.49
2022-08-26T10:52:23.112Z,29.64
2022-08-26T10:55:08.486Z,29.71
2022-08-26T10:57:50.371Z,29.77
2022-08-26T11:00:46.557Z,29.72
2022-08-26T11:03:32.846Z,29.69
2022-08-26T11:06:25.191Z,29.74
2022-08-26T11:08:58.642Z,29.84
2022-08-26T11:11:47.838Z,29.88
2022-08-26T11:14:53.725Z,29.90
2022-08-26T11:18:07.535Z,29.91
2022-08-26T11:20:41.814Z,29.93
2022-08-26T11:23:50.545Z,29.93
2022-08-26T11:26:55.397Z,30.01
2022-08-26T11:29:59.782Z,30.13
2022-08-26T11:32:48.882Z,30.22
2022-08-26T11:35:48.438Z,30.38
2022-08-26T11:38:27.194Z,30.54
2022-08-26T11:41:09.990Z,30.60
2022-08-26T11:43:43.676Z,30.61
2022-08-26T11:46:24.851Z,30.73
2022-08-26T11:49:06.938Z,30.75
2022-08-26T11:51:48.352Z,30.71
2022-08-26T11:54:32.714Z,30.74
2022-08-26T11:57:14.057Z,30.77
2022-08-26T11:59:46.156Z,30.82
2022-08-26T12:02:19.450Z,30.88
2022-08-26T12:04:54.753Z,30.94
2022-08-26T12:07:29.121Z,31.01
2022-08-26T12:10:02.623Z,31.06
2022-08-26T12:12:37.582Z,31.12
2022-08-26T12:15:15.343Z,31.20
2022-08-26T12:17:52.980Z,31.24
2022-08-26T12:20:48.414Z,31.27
2022-08-26T12:23:36.848Z,31.30
2022-08-26T12:26:12.091Z,31.25
2022-08-26T12:28:51.784Z,31.27
2022-08-26T12:31:30.392Z,31.35
2022-08-26T12:34:04.966Z,31.41
2022-08-26T12:36:40.463Z,31.44
2022-08-26T12:39:15.036Z,31.46
2022-08-26T12:41:52.619Z,31.48
2022-08-26T12:44:53.117Z,31.50
2022-08-26T12:47:41.958Z,31.59
2022-08-26T12:50:25.433Z,31.59
2022-08-26T12:53:01.627Z,31.56
2022-08-26T12:55:44.051Z,31.55
2022-08-26T12:58:31.823Z,31.51
2022-08-26T13:01:25.458Z,31.57
2022-08-26T13:03:58.104Z,31.62
2022-08-26T13:06:31.656Z,31.70
2022-08-26T13:09:06.299Z,31.76
2022-08-26T13:12:02.315Z,31.79
2022-08-26T13:14:34.520Z,31.82
2022-08-26T13:17:06.513Z,31.79
2022-08-26T13:19:38.388Z,31.77
2022-08-26T13:22:13.097Z,31.81
2022-08-26T13:24:45.877Z,31.83
2022-08-26T13:27:20.730Z,31.86
2022-08-26T13:29:53.335Z,31.93
2022-08-26T13:32:27.482Z,31.99
2022-08-26T13:35:00.644Z,32.07
2022-08-26T13:37:37.517Z,32.10
2022-08-26T13:40:13.269Z,32.08
2022-08-26T13:42:49.483Z,32.07
2022-08-26T13:45:21.997Z,32.04
2022-08-26T13:47:54.136Z,32.02
2022-08-26T13:50:26.176Z,31.95
2022-08-26T13:52:58.266Z,31.95
2022-08-26T13:55:30.330Z,31.94
2022-08-26T13:58:02.324Z,31.94
2022-08-26T14:00:34.299Z,31.96
2022-08-26T14:03:10.159Z,32.01
2022-08-26T14:05:44.577Z,32.01
2022-08-26T14:08:16.538Z,32.04
2022-08-26T14:13:25.542Z,32.07
2022-08-26T14:15:58.839Z,32.04
2022-08-26T14:18:35.501Z,32.03
2022-08-26T14:21:12.932Z,31.97
2022-08-26T14:23:44.980Z,31.76
2022-08-26T14:26:28.435Z,31.71
2022-08-26T14:29:03.921Z,31.70
2022-08-26T14:31:37.962Z,31.73
2022-08-26T14:34:10.844Z,31.73
2022-08-26T14:36:42.697Z,31.66
2022-08-26T14:39:15.642Z,31.60
2022-08-26T14:41:53.960Z,31.55
2022-08-26T14:44:30.678Z,31.52
2022-08-26T14:47:06.191Z,31.53
2022-08-26T14:49:39.189Z,31.58
2022-08-26T14:52:11.198Z,31.61
2022-08-26T14:54:43.130Z,31.60
2022-08-26T14:57:16.185Z,31.61
2022-08-26T14:59:50.625Z,31.63
2022-08-26T15:02:33.048Z,31.65
2022-08-26T15:05:08.642Z,31.65
2022-08-26T15:07:40.858Z,31.60
2022-08-26T15:10:21.394Z,31.52
2022-08-26T15:12:53.332Z,31.45
2022-08-26T15:15:25.277Z,31.46
2022-08-26T15:17:57.380Z,31.46
2022-08-26T15:23:08.758Z,31.39
2022-08-26T15:25:41.218Z,31.34
2022-08-26T15:28:13.228Z,31.26
2022-08-26T15:30:47.555Z,31.22
2022-08-26T15:33:19.623Z,31.17
2022-08-26T15:35:51.839Z,31.13
2022-08-26T15:38:23.650Z,31.09
2022-08-26T15:40:58.750Z,31.05
2022-08-26T15:43:34.612Z,31.00
2022-08-26T15:46:11.040Z,30.97
2022-08-26T15:48:43.494Z,30.91
2022-08-26T15:51:24.721Z,30.84
2022-08-26T15:53:57.683Z,30.79
2022-08-26T15:56:31.583Z,30.76
2022-08-26T15:59:05.202Z,30.74
2022-08-26T16:01:39.877Z,30.71
2022-08-26T16:04:11.992Z,30.66
2022-08-26T16:06:44.513Z,30.62
2022-08-26T16:09:16.353Z,30.57
2022-08-26T16:11:50.624Z,30.49
2022-08-26T16:14:22.943Z,30.43
2022-08-26T16:16:56.387Z,30.37
2022-08-26T16:19:28.426Z,30.28
2022-08-26T16:22:01.244Z,30.21
2022-08-26T16:24:33.351Z,30.13
2022-08-26T16:27:05.716Z,30.06
2022-08-26T16:29:39.430Z,29.99
2022-08-26T16:32:11.352Z,29.91
2022-08-26T16:34:56.119Z,29.83
2022-08-26T16:37:29.221Z,29.74
2022-08-26T16:40:01.141Z,29.65
2022-08-26T16:42:34.011Z,29.55
2022-08-26T16:45:08.472Z,29.47
2022-08-26T16:47:40.793Z,29.39
2022-08-26T16:50:17.174Z,29.31
2022-08-26T16:52:54.262Z,29.23
2022-08-26T16:55:27.767Z,29.13
2022-08-26T16:57:59.839Z,29.05
2022-08-26T17:00:34.221Z,28.94
2022-08-26T17:03:08.731Z,28.81
2022-08-26T17:05:40.971Z,28.68
2022-08-26T17:08:24.221Z,28.57
2022-08-26T17:11:01.638Z,28.43
2022-08-26T17:13:35.474Z,28.32
2022-08-26T17:16:10.849Z,28.20
2022-08-26T17:18:42.902Z,28.08
2022-08-26T17:21:15.836Z,27.97
2022-08-26T17:23:48.188Z,27.85
2022-08-26T17:26:20.415Z,27.74
2022-08-26T17:28:52.362Z,27.63
2022-08-26T17:31:25.153Z,27.54
2022-08-26T17:33:57.148Z,27.44
2022-08-26T17:36:28.957Z,27.35
2022-08-26T17:39:01.100Z,27.26
2022-08-26T17:41:33.195Z,27.17
2022-08-26T17:44:07.872Z,27.10
2022-08-26T17:46:39.859Z,27.03
2022-08-26T17:49:11.734Z,26.95
2022-08-26T17:51:42.178Z,26.88
2022-08-26T17:54:14.043Z,26.81
2022-08-26T17:56:46.044Z,26.76
2022-08-26T17:59:18.056Z,26.65
2022-08-26T18:01:50.135Z,26.53
2022-08-26T18:04:22.677Z,26.41
2022-08-26T18:06:54.552Z,26.31
2022-08-26T18:09:26.535Z,26.20
2022-08-26T18:11:58.647Z,26.08
2022-08-26T18:14:30.913Z,25.97
2022-08-26T18:17:03.013Z,25.87
2022-08-26T18:19:34.991Z,25.76
2022-08-26T18:22:07.039Z,25.63
2022-08-26T18:24:39.007Z,25.52
2022-08-26T18:27:11.080Z,25.45
2022-08-26T18:29:45.450Z,25.38
2022-08-26T18:32:17.944Z,25.29
2022-08-26T18:34:49.763Z,25.17
2022-08-26T18:37:21.571Z,25.07
2022-08-26T18:39:53.454Z,24.99
2022-08-26T18:42:25.435Z,24.94
2022-08-26T18:44:58.207Z,24.88
2022-08-26T18:47:31.115Z,24.83
2022-08-26T18:50:08.332Z,24.79
2022-08-26T18:52:40.610Z,24.71
2022-08-26T18:55:12.651Z,24.60
2022-08-26T18:57:44.617Z,24.51
2022-08-26T19:00:24.091Z,24.45
2022-08-26T19:02:56.206Z,24.40
2022-08-26T19:05:28.251Z,24.37
2022-08-26T19:08:00.162Z,24.34
2022-08-26T19:10:33.105Z,24.32
2022-08-26T19:13:05.179Z,24.31
2022-08-26T19:15:42.250Z,24.30
2022-08-26T19:18:16.002Z,24.29
2022-08-26T19:20:49.869Z,24.29
2022-08-26T19:23:31.842Z,24.26
2022-08-26T19:26:07.007Z,24.26
2022-08-26T19:28:40.876Z,24.24
2022-08-26T19:31:13.707Z,24.24
2022-08-26T19:33:46.350Z,24.22
2022-08-26T19:36:21.975Z,24.21
2022-08-26T19:38:54.795Z,24.16
2022-08-26T19:41:37.303Z,24.09
2022-08-26T19:44:12.997Z,24.01
2022-08-26T19:46:44.867Z,23.94
2022-08-26T19:49:16.722Z,23.91
2022-08-26T19:51:49.299Z,23.89
2022-08-26T19:54:22.774Z,23.86
2022-08-26T19:56:54.712Z,23.83
2022-08-26T19:59:26.526Z,23.78
2022-08-26T20:02:01.064Z,23.71
2022-08-26T20:04:34.461Z,23.63
2022-08-26T20:07:06.539Z,23.53
2022-08-26T20:09:39.687Z,23.43
2022-08-26T20:12:12.503Z,23.37
2022-08-26T20:14:44.763Z,23.33
2022-08-26T20:17:17.247Z,23.32
2022-08-26T20:20:06.803Z,23.29
2022-08-26T20:22:58.933Z,23.27
2022-08-26T20:25:32.647Z,23.22
2022-08-26T20:28:05.292Z,23.16
2022-08-26T20:30:37.343Z,23.05
2022-08-26T20:33:09.178Z,23.03
2022-08-26T20:35:42.684Z,22.97
2022-08-26T20:38:16.634Z,22.92
2022-08-26T20:40:51.323Z,22.91
2022-08-26T20:43:28.147Z,22.88
2022-08-26T20:46:00.050Z,22.84
2022-08-26T20:48:32.685Z,22.83
2022-08-26T20:51:05.646Z,22.83
2022-08-26T20:53:38.873Z,22.81
2022-08-26T20:56:13.550Z,22.77
2022-08-26T20:58:45.582Z,22.71
2022-08-26T21:01:22.502Z,22.64
2022-08-26T21:03:56.536Z,22.58
2022-08-26T21:06:28.672Z,22.55
2022-08-26T21:09:01.634Z,22.54
2022-08-26T21:11:33.805Z,22.54
2022-08-26T21:14:16.602Z,22.55
2022-08-26T21:16:49.533Z,22.56
2022-08-26T21:19:21.885Z,22.57
2022-08-26T21:21:53.866Z,22.58
2022-08-26T21:24:25.778Z,22.56
2022-08-26T21:26:57.820Z,22.55
2022-08-26T21:29:29.997Z,22.54
2022-08-26T21:32:02.036Z,22.54
2022-08-26T21:34:34.074Z,22.55
2022-08-26T21:37:08.995Z,22.55
2022-08-26T21:39:48.928Z,22.57
2022-08-26T21:42:20.836Z,22.58
2022-08-26T21:44:53.551Z,22.60
2022-08-26T21:47:25.979Z,22.62
2022-08-26T21:49:58.220Z,22.63
2022-08-26T21:52:30.155Z,22.62
2022-08-26T21:55:04.318Z,22.61
2022-08-26T21:57:41.049Z,22.61
2022-08-26T22:00:19.626Z,22.60
2022-08-26T22:02:51.463Z,22.59
2022-08-26T22:05:24.202Z,22.58
2022-08-26T22:07:56.581Z,22.58
2022-08-26T22:10:34.148Z,22.52
2022-08-26T22:13:06.575Z,22.45
2022-08-26T22:15:41.483Z,22.36
2022-08-26T22:18:13.444Z,22.29
2022-08-26T22:20:48.153Z,22.25
2022-08-26T22:23:20.448Z,22.19
2022-08-26T22:25:52.464Z,22.19
2022-08-26T22:28:24.366Z,22.19
2022-08-26T22:31:00.872Z,22.17
2022-08-26T22:33:37.815Z,22.11
2022-08-26T22:36:16.109Z,22.08
2022-08-26T22:38:48.765Z,22.09
2022-08-26T22:41:23.068Z,22.10
2022-08-26T22:43:55.066Z,22.07
2022-08-26T22:46:28.416Z,22.08
2022-08-26T22:49:00.229Z,22.08
2022-08-26T22:51:33.163Z,22.06
2022-08-26T22:54:05.180Z,21.99
2022-08-26T22:56:37.655Z,21.89
2022-08-26T22:59:10.313Z,21.86
2022-08-26T23:01:46.461Z,21.76
2022-08-26T23:04:18.758Z,21.72
2022-08-26T23:06:50.805Z,21.70
2022-08-26T23:09:22.732Z,21.70
2022-08-26T23:11:56.101Z,21.72
2022-08-26T23:14:28.292Z,21.71
2022-08-26T23:17:00.315Z,21.69
2022-08-26T23:19:32.336Z,21.69
2022-08-26T23:22:04.460Z,21.66
2022-08-26T23:24:36.783Z,21.62
2022-08-26T23:27:09.233Z,21.59
2022-08-26T23:29:41.246Z,21.56
2022-08-26T23:32:14.303Z,21.53
2022-08-26T23:34:59.125Z,21.51
2022-08-26T23:37:35.891Z,21.50
2022-08-26T23:40:17.158Z,21.49
2022-08-26T23:42:50.050Z,21.47
2022-08-26T23:45:23.146Z,21.44
2022-08-26T23:47:55.520Z,21.40
2022-08-26T23:50:49.809Z,21.40
2022-08-26T23:53:24.480Z,21.42
2022-08-26T23:55:56.379Z,21.46
2022-08-26T23:58:28.320Z,21.47
